METAR|ÜBERSETZT|TAF
EDHK 241550Z 29005KT 9999 -DZ BKN008 14/14 Q1012
Login|Impressum|Kontakt



Buchtipp - Dieter Steffen: Prägung

Lesenswert und spannende Fliegerlektüre. Hier klicken für die Rezension.



Hier erfahren Sie alles über Motorflug Segelflug Fallschirmspringen Ballonfahren




Der LSV-Kiel ist Mitglied im
Luftsportverband Schleswig-Holstein und im
DAeC